createdAt,value
2022-12-31T07:23:18.344Z,25.00
2022-12-31T07:24:04.274Z,25.00
2022-12-31T07:25:04.222Z,25.00
2022-12-31T07:26:04.354Z,25.00
2022-12-31T07:27:04.152Z,25.00
2022-12-31T07:28:04.103Z,25.00
2022-12-31T07:29:04.082Z,0.00
2022-12-31T07:30:04.172Z,0.00
2022-12-31T07:31:04.099Z,0.00
2022-12-31T07:32:04.166Z,0.00
2022-12-31T07:33:04.258Z,0.00
2022-12-31T07:34:04.084Z,0.00
2022-12-31T07:35:04.297Z,0.00
2022-12-31T07:36:04.285Z,0.00
2022-12-31T07:37:04.214Z,0.00
2022-12-31T07:38:04.212Z,0.00
2022-12-31T07:39:04.143Z,0.00
2022-12-31T07:40:04.097Z,0.00
2022-12-31T07:41:09.284Z,0.00
2022-12-31T07:42:04.114Z,0.00
2022-12-31T07:43:04.156Z,0.00
2022-12-31T07:44:04.082Z,0.00
2022-12-31T07:45:04.103Z,0.00
2022-12-31T07:46:04.135Z,0.00
2022-12-31T07:47:04.088Z,0.00
2022-12-31T07:48:04.111Z,0.00
2022-12-31T07:49:04.109Z,0.00
2022-12-31T07:50:04.078Z,0.00
2022-12-31T07:51:04.079Z,0.00
2022-12-31T07:52:04.077Z,0.00
2022-12-31T07:53:04.106Z,0.00
2022-12-31T07:54:08.732Z,0.00
2022-12-31T07:55:04.109Z,0.00
2022-12-31T07:56:04.270Z,0.00
2022-12-31T07:57:04.250Z,0.00
2022-12-31T07:58:04.184Z,0.00
2022-12-31T07:59:04.094Z,0.00
2022-12-31T08:00:04.283Z,0.00
2022-12-31T08:01:04.317Z,0.00
2022-12-31T08:02:04.198Z,0.00
2022-12-31T08:03:04.166Z,0.00
2022-12-31T08:04:04.070Z,0.00
2022-12-31T08:05:04.132Z,0.00
2022-12-31T08:06:04.064Z,0.00
2022-12-31T08:07:04.140Z,0.00
2022-12-31T08:08:04.132Z,0.00
2022-12-31T08:09:04.003Z,0.00
2022-12-31T08:10:04.274Z,0.00
2022-12-31T08:11:04.084Z,0.00
2022-12-31T08:12:04.049Z,0.00
2022-12-31T08:13:03.960Z,0.00
2022-12-31T08:14:03.966Z,0.00
2022-12-31T08:15:04.077Z,0.00
2022-12-31T08:16:04.107Z,12.74
2022-12-31T08:17:03.993Z,25.00
2022-12-31T08:18:04.041Z,25.00
2022-12-31T08:19:03.933Z,25.00
2022-12-31T08:20:03.991Z,26.54
2022-12-31T08:21:04.253Z,27.81
2022-12-31T08:22:04.249Z,25.27
2022-12-31T08:23:03.967Z,26.14
2022-12-31T08:24:04.046Z,31.93
2022-12-31T08:25:04.040Z,38.05
2022-12-31T08:26:04.017Z,34.47
2022-12-31T08:27:03.976Z,35.92
2022-12-31T08:28:04.116Z,57.05
2022-12-31T08:29:03.925Z,47.49
2022-12-31T08:30:04.108Z,70.81
2022-12-31T08:31:03.841Z,56.41
2022-12-31T08:32:03.933Z,59.47
2022-12-31T08:33:03.862Z,49.38
2022-12-31T08:34:06.222Z,57.16
2022-12-31T08:35:03.844Z,57.33
2022-12-31T08:36:03.901Z,59.92
2022-12-31T08:37:03.905Z,65.84
2022-12-31T08:38:04.139Z,71.21
2022-12-31T08:39:03.735Z,89.82
2022-12-31T08:40:03.751Z,103.09
2022-12-31T08:41:03.727Z,89.04
2022-12-31T08:42:03.712Z,73.38
2022-12-31T08:43:03.691Z,73.14
2022-12-31T08:44:03.792Z,75.09
2022-12-31T08:45:03.681Z,65.97
2022-12-31T08:46:03.760Z,64.36
2022-12-31T08:47:03.650Z,48.46
2022-12-31T08:48:03.769Z,31.47
2022-12-31T08:49:03.667Z,31.06
2022-12-31T08:50:03.769Z,41.83
2022-12-31T08:51:03.709Z,40.23
2022-12-31T08:52:03.947Z,35.61
2022-12-31T08:53:03.635Z,39.79
2022-12-31T08:54:03.594Z,43.98
2022-12-31T08:55:03.531Z,42.18
2022-12-31T08:56:03.588Z,58.15
2022-12-31T08:57:03.916Z,52.76
2022-12-31T08:58:03.522Z,40.05
2022-12-31T08:59:03.537Z,40.37
2022-12-31T09:00:03.638Z,36.34
2022-12-31T09:01:03.686Z,25.28
2022-12-31T09:02:03.701Z,27.04
2022-12-31T09:03:03.528Z,24.09
2022-12-31T09:04:03.683Z,25.00
2022-12-31T09:05:03.586Z,32.68
2022-12-31T09:06:03.752Z,25.68
2022-12-31T09:07:03.489Z,28.74
2022-12-31T09:08:03.454Z,27.91
2022-12-31T09:09:03.429Z,46.44
2022-12-31T09:10:03.510Z,45.44
2022-12-31T09:11:03.507Z,57.18
2022-12-31T09:12:03.415Z,51.01
2022-12-31T09:13:03.432Z,44.25
2022-12-31T09:14:03.395Z,48.61
2022-12-31T09:15:03.417Z,62.15
2022-12-31T09:16:03.346Z,45.76
2022-12-31T09:17:03.369Z,50.61
2022-12-31T09:18:03.305Z,70.27
2022-12-31T09:19:03.261Z,78.26
2022-12-31T09:20:03.323Z,84.10
2022-12-31T09:21:03.271Z,98.86
2022-12-31T09:22:03.370Z,108.48
2022-12-31T09:23:03.498Z,106.06
2022-12-31T09:24:09.150Z,108.13
2022-12-31T09:25:03.201Z,108.62
2022-12-31T09:26:03.193Z,110.52
2022-12-31T09:27:03.202Z,115.03
2022-12-31T09:28:03.267Z,124.48
2022-12-31T09:29:03.336Z,139.27
2022-12-31T09:30:03.137Z,145.67
2022-12-31T09:31:03.130Z,151.18
2022-12-31T09:32:03.230Z,158.62
2022-12-31T09:33:03.173Z,145.60
2022-12-31T09:34:03.080Z,137.57
2022-12-31T09:35:03.053Z,144.38
2022-12-31T09:36:03.097Z,152.87
2022-12-31T09:37:03.086Z,145.95
2022-12-31T09:38:06.530Z,132.41
2022-12-31T09:39:03.180Z,132.69
2022-12-31T09:40:03.130Z,129.87
2022-12-31T09:41:03.125Z,130.47
2022-12-31T09:42:03.020Z,118.08
2022-12-31T09:43:02.993Z,106.05
2022-12-31T09:44:03.021Z,82.92
2022-12-31T09:45:02.998Z,79.54
2022-12-31T09:46:03.303Z,78.02
2022-12-31T09:47:02.949Z,76.61
2022-12-31T09:48:02.900Z,71.10
2022-12-31T09:49:02.884Z,68.70
2022-12-31T09:50:02.918Z,67.13
2022-12-31T09:51:02.836Z,63.46
2022-12-31T09:52:02.925Z,65.83
2022-12-31T09:53:02.836Z,73.22
2022-12-31T09:54:02.793Z,86.86
2022-12-31T09:55:02.904Z,101.72
2022-12-31T09:56:02.754Z,141.32
2022-12-31T09:57:02.822Z,117.80
2022-12-31T09:58:02.734Z,107.67
2022-12-31T09:59:02.753Z,112.35
2022-12-31T10:00:02.694Z,100.23
2022-12-31T10:01:02.920Z,86.09
2022-12-31T10:02:02.938Z,72.60
2022-12-31T10:03:02.706Z,58.12
2022-12-31T10:04:02.711Z,55.05
2022-12-31T10:05:02.732Z,70.74
2022-12-31T10:06:02.615Z,72.16
2022-12-31T10:07:02.563Z,75.62
2022-12-31T10:08:02.524Z,87.95
2022-12-31T10:09:02.643Z,110.99
2022-12-31T10:10:02.485Z,105.24
2022-12-31T10:11:02.438Z,115.94
2022-12-31T10:12:02.515Z,120.85
2022-12-31T10:13:02.431Z,136.15
2022-12-31T10:14:02.501Z,142.88
2022-12-31T10:15:02.451Z,154.12
2022-12-31T10:16:02.373Z,159.29
2022-12-31T10:17:02.342Z,167.47
2022-12-31T10:18:02.251Z,155.66
2022-12-31T10:19:02.291Z,163.73
2022-12-31T10:20:02.250Z,168.25
2022-12-31T10:21:02.164Z,177.93
2022-12-31T10:22:02.138Z,180.94
2022-12-31T10:23:02.137Z,175.03
2022-12-31T10:24:02.090Z,171.89
2022-12-31T10:25:02.062Z,147.56
2022-12-31T10:26:02.058Z,138.02
2022-12-31T10:27:01.969Z,142.06
2022-12-31T10:28:01.942Z,142.03
2022-12-31T10:29:01.950Z,153.87
2022-12-31T10:30:01.938Z,154.93
2022-12-31T10:31:01.974Z,86.92
2022-12-31T10:32:01.896Z,60.53
2022-12-31T10:33:01.845Z,48.65
2022-12-31T10:34:01.771Z,36.21
2022-12-31T10:35:01.811Z,31.92
2022-12-31T10:36:01.688Z,22.73
2022-12-31T10:37:01.630Z,26.52
2022-12-31T10:38:01.636Z,32.31
2022-12-31T10:39:03.032Z,55.10
2022-12-31T10:40:01.595Z,55.49
2022-12-31T10:41:01.553Z,59.56
2022-12-31T10:42:01.643Z,68.49
2022-12-31T10:43:01.522Z,106.27
2022-12-31T10:44:01.450Z,122.84
2022-12-31T10:45:01.361Z,133.76
2022-12-31T10:46:01.401Z,84.32
2022-12-31T10:47:01.282Z,121.41
2022-12-31T10:48:01.355Z,133.36
2022-12-31T10:49:01.187Z,115.35
2022-12-31T10:50:01.210Z,121.01
2022-12-31T10:51:01.194Z,123.76
2022-12-31T10:52:01.119Z,111.77
2022-12-31T10:53:01.145Z,110.85
2022-12-31T10:54:01.053Z,104.70
2022-12-31T10:55:00.941Z,111.48
2022-12-31T10:56:00.964Z,119.84
2022-12-31T10:57:00.879Z,125.12
2022-12-31T10:58:04.365Z,142.28
2022-12-31T10:59:00.818Z,133.05
2022-12-31T11:00:00.742Z,139.38
2022-12-31T11:01:00.904Z,154.30
2022-12-31T11:02:00.814Z,151.73
2022-12-31T11:03:00.712Z,163.86
2022-12-31T11:04:00.681Z,140.92
2022-12-31T11:05:00.564Z,133.47
2022-12-31T11:06:00.501Z,167.64
2022-12-31T11:07:00.437Z,190.05
2022-12-31T11:08:00.386Z,157.98
2022-12-31T11:09:00.329Z,172.63
2022-12-31T11:10:00.308Z,132.82
2022-12-31T11:11:00.288Z,112.21
2022-12-31T11:12:00.195Z,104.73
2022-12-31T11:13:00.190Z,144.12
2022-12-31T11:14:00.129Z,150.16
2022-12-31T11:15:00.126Z,172.24
2022-12-31T11:16:00.163Z,194.44
2022-12-31T11:17:00.122Z,156.07
2022-12-31T11:18:00.041Z,153.98
2022-12-31T11:18:59.967Z,162.02
2022-12-31T11:19:59.891Z,159.30
2022-12-31T11:20:59.950Z,159.61
2022-12-31T11:21:59.807Z,156.75
2022-12-31T11:22:59.824Z,182.71
2022-12-31T11:23:59.755Z,177.56
2022-12-31T11:24:59.724Z,196.34
2022-12-31T11:25:59.683Z,164.41
2022-12-31T11:26:59.590Z,164.57
2022-12-31T11:27:59.696Z,154.48
2022-12-31T11:28:59.552Z,142.19
2022-12-31T11:29:59.587Z,142.83
2022-12-31T11:30:59.778Z,143.55
2022-12-31T11:31:59.607Z,172.06
2022-12-31T11:32:59.384Z,210.74
2022-12-31T11:33:59.363Z,230.98
2022-12-31T11:34:59.419Z,245.33
2022-12-31T11:35:59.378Z,249.31
2022-12-31T11:36:59.264Z,249.78
2022-12-31T11:37:59.279Z,246.44
2022-12-31T11:38:59.364Z,243.86
2022-12-31T11:39:59.226Z,247.93
2022-12-31T11:40:59.403Z,243.42
2022-12-31T11:41:59.177Z,241.15
2022-12-31T11:42:59.133Z,215.91
2022-12-31T11:43:59.135Z,191.93
2022-12-31T11:44:59.233Z,176.15
2022-12-31T11:45:59.116Z,194.40
2022-12-31T11:46:59.057Z,200.02
2022-12-31T11:48:58.957Z,198.42
2022-12-31T11:49:58.983Z,195.24
2022-12-31T11:50:58.978Z,197.14
2022-12-31T11:51:59.029Z,189.47
2022-12-31T11:52:58.869Z,177.54
2022-12-31T11:53:58.924Z,172.93
2022-12-31T11:54:58.821Z,155.84
2022-12-31T11:55:58.830Z,159.31
2022-12-31T11:56:58.778Z,174.47
2022-12-31T11:57:58.774Z,167.19
2022-12-31T11:58:58.778Z,150.17
2022-12-31T11:59:58.755Z,136.35
2022-12-31T12:00:58.769Z,158.68
2022-12-31T12:01:58.699Z,138.87
2022-12-31T12:02:58.738Z,129.15
2022-12-31T12:03:58.665Z,124.69
2022-12-31T12:04:58.586Z,126.72
2022-12-31T12:05:58.597Z,147.98
2022-12-31T12:06:58.782Z,140.42
2022-12-31T12:07:58.594Z,144.52
2022-12-31T12:08:58.740Z,164.62
2022-12-31T12:09:58.520Z,149.33
2022-12-31T12:10:58.421Z,133.99
2022-12-31T12:11:58.443Z,156.54
2022-12-31T12:12:58.378Z,158.89
2022-12-31T12:13:58.431Z,161.34
2022-12-31T12:14:58.372Z,146.44
2022-12-31T12:15:58.392Z,140.52
2022-12-31T12:17:04.370Z,135.01
2022-12-31T12:17:58.286Z,135.19
2022-12-31T12:18:58.378Z,132.30
2022-12-31T12:19:58.499Z,137.67
2022-12-31T12:20:58.273Z,149.11
2022-12-31T12:21:58.178Z,166.08
2022-12-31T12:22:58.208Z,178.80
2022-12-31T12:23:58.191Z,202.77
2022-12-31T12:24:58.244Z,202.78
2022-12-31T12:25:58.254Z,201.74
2022-12-31T12:26:58.076Z,189.81
2022-12-31T12:27:58.158Z,183.79
2022-12-31T12:28:58.025Z,188.80
2022-12-31T12:29:58.071Z,196.60
2022-12-31T12:30:58.031Z,207.15
2022-12-31T12:31:57.932Z,199.44
2022-12-31T12:32:57.979Z,205.44
2022-12-31T12:33:57.799Z,232.15
2022-12-31T12:34:57.816Z,222.42
2022-12-31T12:35:57.764Z,248.84
2022-12-31T12:36:57.777Z,259.97
2022-12-31T12:37:57.727Z,228.27
2022-12-31T12:38:57.650Z,207.05
2022-12-31T12:39:57.705Z,219.41
2022-12-31T12:40:57.651Z,221.36
2022-12-31T12:41:57.615Z,198.47
2022-12-31T12:42:57.547Z,195.80
2022-12-31T12:43:57.530Z,190.69
2022-12-31T12:44:57.442Z,180.93
2022-12-31T12:45:57.442Z,196.55
2022-12-31T12:46:57.484Z,151.87
2022-12-31T12:47:57.402Z,158.34
2022-12-31T12:48:57.300Z,174.05
2022-12-31T12:49:57.273Z,191.86
2022-12-31T12:50:57.308Z,170.49
2022-12-31T12:51:57.264Z,159.46
2022-12-31T12:52:59.623Z,168.77
2022-12-31T12:53:57.235Z,167.09
2022-12-31T12:54:57.190Z,169.12
2022-12-31T12:55:57.156Z,149.98
2022-12-31T12:56:57.093Z,155.42
2022-12-31T12:57:57.143Z,208.98
2022-12-31T12:58:57.028Z,225.88
2022-12-31T12:59:57.060Z,214.51
2022-12-31T13:00:57.085Z,234.06
2022-12-31T13:01:57.153Z,249.66
2022-12-31T13:02:57.008Z,237.55
2022-12-31T13:04:56.851Z,248.49
2022-12-31T13:05:56.798Z,211.05
2022-12-31T13:06:56.890Z,186.97
2022-12-31T13:07:56.776Z,153.29
2022-12-31T13:08:56.680Z,117.15
2022-12-31T13:09:56.816Z,104.20
2022-12-31T13:10:56.624Z,106.99
2022-12-31T13:11:56.586Z,80.21
2022-12-31T13:13:26.110Z,127.31
2022-12-31T13:13:56.531Z,112.72
2022-12-31T13:14:56.533Z,103.68
2022-12-31T13:15:56.518Z,106.00
2022-12-31T13:16:56.432Z,101.26
2022-12-31T13:18:01.433Z,91.63
2022-12-31T13:18:56.460Z,93.94
2022-12-31T13:19:56.444Z,111.95
2022-12-31T13:20:56.373Z,127.66
2022-12-31T13:21:56.265Z,129.20
2022-12-31T13:22:56.237Z,132.14
2022-12-31T13:23:56.280Z,114.71
2022-12-31T13:24:56.226Z,88.82
2022-12-31T13:25:56.173Z,97.79
2022-12-31T13:26:56.180Z,118.70
2022-12-31T13:27:56.216Z,124.54
2022-12-31T13:28:56.063Z,131.87
2022-12-31T13:29:56.033Z,139.65
2022-12-31T13:30:57.531Z,136.39
2022-12-31T13:31:56.014Z,136.69
2022-12-31T13:32:56.054Z,138.21
2022-12-31T13:33:55.832Z,142.67
2022-12-31T13:34:56.055Z,148.58
2022-12-31T13:35:55.871Z,158.44
2022-12-31T13:36:55.819Z,167.33
2022-12-31T13:38:00.295Z,136.88
2022-12-31T13:38:55.685Z,137.12
2022-12-31T13:39:55.741Z,142.04
2022-12-31T13:40:55.651Z,147.36
2022-12-31T13:41:55.609Z,160.33
2022-12-31T13:42:55.533Z,177.55
2022-12-31T13:43:55.536Z,174.32
2022-12-31T13:44:55.482Z,145.16
2022-12-31T13:45:55.456Z,132.81
2022-12-31T13:46:55.535Z,122.03
2022-12-31T13:47:55.410Z,127.09
2022-12-31T13:48:55.318Z,114.40
2022-12-31T13:49:55.237Z,121.24
2022-12-31T13:50:55.214Z,140.97
2022-12-31T13:51:55.215Z,162.09
2022-12-31T13:52:55.297Z,179.46
2022-12-31T13:53:55.150Z,187.98
2022-12-31T13:54:54.999Z,190.84
2022-12-31T13:55:56.965Z,195.40
2022-12-31T13:56:54.897Z,192.28
2022-12-31T13:57:54.947Z,196.93
2022-12-31T13:58:54.831Z,173.09
2022-12-31T13:59:54.768Z,105.33
2022-12-31T14:00:54.919Z,130.60
2022-12-31T14:01:54.914Z,150.60
2022-12-31T14:02:54.684Z,108.99
2022-12-31T14:03:54.630Z,94.40
2022-12-31T14:04:54.594Z,105.98
2022-12-31T14:05:54.514Z,115.78
2022-12-31T14:06:54.434Z,112.58
2022-12-31T14:07:54.372Z,151.01
2022-12-31T14:08:54.380Z,155.58
2022-12-31T14:09:54.275Z,200.87
2022-12-31T14:10:54.355Z,232.97
2022-12-31T14:11:54.255Z,232.87
2022-12-31T14:12:54.221Z,250.85
2022-12-31T14:13:54.132Z,247.80
2022-12-31T14:14:54.110Z,246.65
2022-12-31T14:15:53.995Z,250.00
2022-12-31T14:16:54.173Z,251.13
2022-12-31T14:17:53.928Z,247.31
2022-12-31T14:18:53.922Z,250.20
2022-12-31T14:19:53.868Z,250.00
2022-12-31T14:20:53.784Z,249.60
2022-12-31T14:21:53.738Z,250.46
2022-12-31T14:22:53.774Z,246.27
2022-12-31T14:23:53.657Z,248.97
2022-12-31T14:24:53.618Z,246.15
2022-12-31T14:25:53.621Z,248.76
2022-12-31T14:26:53.542Z,250.00
2022-12-31T14:27:53.597Z,250.08
2022-12-31T14:28:53.517Z,244.99
2022-12-31T14:29:53.466Z,248.30
2022-12-31T14:30:53.467Z,249.98
2022-12-31T14:31:53.469Z,247.25
2022-12-31T14:32:53.319Z,238.53
2022-12-31T14:33:53.305Z,232.51
2022-12-31T14:34:53.304Z,238.71
2022-12-31T14:35:53.243Z,239.91
2022-12-31T14:36:53.141Z,242.04
2022-12-31T14:37:53.119Z,240.81
2022-12-31T14:38:53.030Z,237.46
2022-12-31T14:39:53.028Z,236.21
2022-12-31T14:40:52.966Z,238.10
2022-12-31T14:41:52.907Z,243.73
2022-12-31T14:42:53.040Z,237.38
2022-12-31T14:43:52.872Z,243.60
2022-12-31T14:44:52.876Z,219.29
2022-12-31T14:45:52.873Z,211.22
2022-12-31T14:46:52.731Z,199.10
2022-12-31T14:47:52.723Z,199.51
2022-12-31T14:48:52.657Z,200.29
2022-12-31T14:49:52.656Z,203.76
2022-12-31T14:50:52.632Z,197.17
2022-12-31T14:51:52.697Z,196.19
2022-12-31T14:52:52.666Z,197.74
2022-12-31T14:53:52.512Z,197.69
2022-12-31T14:54:52.548Z,193.21
2022-12-31T14:55:52.457Z,187.53
2022-12-31T14:56:52.486Z,189.38
2022-12-31T14:58:26.599Z,180.49
2022-12-31T14:58:52.327Z,176.30
2022-12-31T14:59:52.317Z,172.63
2022-12-31T15:00:52.362Z,167.51
2022-12-31T15:01:52.363Z,168.13
2022-12-31T15:02:52.289Z,170.36
2022-12-31T15:03:52.290Z,178.77
2022-12-31T15:04:52.170Z,180.11
2022-12-31T15:05:52.175Z,178.03
2022-12-31T15:06:52.131Z,176.66
2022-12-31T15:07:52.118Z,179.71
2022-12-31T15:08:52.203Z,182.76
2022-12-31T15:09:52.036Z,177.62
2022-12-31T15:10:52.015Z,172.56
2022-12-31T15:11:52.004Z,174.65
2022-12-31T15:12:51.966Z,168.23
2022-12-31T15:13:51.920Z,164.45
2022-12-31T15:14:51.933Z,166.93
2022-12-31T15:15:51.867Z,171.18
2022-12-31T15:16:51.969Z,187.73
2022-12-31T15:17:51.833Z,191.19
2022-12-31T15:18:51.827Z,195.25
2022-12-31T15:19:51.771Z,198.48
2022-12-31T15:20:51.871Z,191.81
2022-12-31T15:21:51.726Z,187.98
2022-12-31T15:22:51.747Z,186.71
2022-12-31T15:23:51.699Z,184.04
2022-12-31T15:24:51.738Z,181.99
2022-12-31T15:25:51.741Z,187.70
2022-12-31T15:26:51.732Z,197.82
2022-12-31T15:27:51.739Z,187.22
2022-12-31T15:28:51.755Z,185.70
2022-12-31T15:29:51.647Z,192.45
2022-12-31T15:30:51.647Z,181.45
2022-12-31T15:31:51.615Z,184.83
2022-12-31T15:32:51.518Z,174.04
2022-12-31T15:33:51.508Z,167.07
2022-12-31T15:34:51.542Z,169.03
2022-12-31T15:35:51.470Z,174.07
2022-12-31T15:36:51.559Z,178.31
2022-12-31T15:37:51.475Z,183.58
2022-12-31T15:38:51.386Z,172.64
2022-12-31T15:39:51.366Z,170.99
2022-12-31T15:40:51.319Z,183.74
2022-12-31T15:42:35.562Z,193.63
2022-12-31T15:42:51.302Z,193.90
2022-12-31T15:43:51.259Z,195.80
2022-12-31T15:44:51.207Z,199.50
2022-12-31T15:45:51.207Z,204.74
2022-12-31T15:46:51.401Z,219.16
2022-12-31T15:47:51.113Z,225.32
2022-12-31T15:48:52.628Z,226.73
2022-12-31T15:49:51.110Z,226.97
2022-12-31T15:50:51.056Z,228.87
2022-12-31T15:51:51.007Z,233.86
2022-12-31T15:52:51.000Z,242.43
2022-12-31T15:53:50.949Z,252.55
2022-12-31T15:54:50.987Z,250.00
2022-12-31T15:55:50.934Z,250.00
2022-12-31T15:56:50.887Z,239.80
2022-12-31T15:57:50.867Z,227.25
2022-12-31T15:58:50.849Z,183.17
2022-12-31T15:59:50.821Z,155.29
2022-12-31T16:00:50.781Z,154.39
2022-12-31T16:01:50.809Z,143.09
2022-12-31T16:02:50.810Z,130.55
2022-12-31T16:03:50.672Z,133.18
2022-12-31T16:04:51.324Z,127.64
2022-12-31T16:05:50.644Z,131.59
2022-12-31T16:06:51.318Z,137.35
2022-12-31T16:07:50.584Z,148.69
2022-12-31T16:08:50.532Z,149.31
2022-12-31T16:09:50.484Z,143.97
2022-12-31T16:10:50.522Z,148.74
2022-12-31T16:11:50.399Z,149.44
2022-12-31T16:12:50.447Z,152.62
2022-12-31T16:13:50.438Z,162.43
2022-12-31T16:14:50.390Z,169.71
2022-12-31T16:15:50.405Z,177.34
2022-12-31T16:16:50.294Z,179.89
2022-12-31T16:17:50.464Z,168.43
2022-12-31T16:18:50.218Z,165.25
2022-12-31T16:19:50.216Z,175.57
2022-12-31T16:20:50.443Z,185.51
2022-12-31T16:21:50.164Z,187.54
2022-12-31T16:22:50.153Z,190.14
2022-12-31T16:23:50.150Z,189.25
2022-12-31T16:25:28.210Z,195.69
2022-12-31T16:25:50.131Z,195.75
2022-12-31T16:26:50.325Z,195.77
2022-12-31T16:27:50.111Z,196.22
2022-12-31T16:28:50.083Z,190.11
2022-12-31T16:29:55.723Z,194.90
2022-12-31T16:30:50.115Z,195.92
2022-12-31T16:31:50.044Z,191.49
2022-12-31T16:32:50.112Z,193.29
2022-12-31T16:33:50.079Z,192.34
2022-12-31T16:34:50.173Z,192.41
2022-12-31T16:35:50.101Z,193.48
2022-12-31T16:36:50.198Z,196.99
2022-12-31T16:37:50.260Z,199.72
2022-12-31T16:38:49.930Z,197.19
2022-12-31T16:39:49.950Z,197.68
2022-12-31T16:40:50.031Z,195.77
2022-12-31T16:41:50.024Z,192.81
2022-12-31T16:42:49.959Z,188.97
2022-12-31T16:43:49.891Z,182.32
2022-12-31T16:44:49.759Z,188.00
2022-12-31T16:45:49.843Z,188.98
2022-12-31T16:46:49.804Z,193.04
2022-12-31T16:47:49.725Z,201.46
2022-12-31T16:48:49.751Z,202.59
2022-12-31T16:49:49.830Z,198.63
2022-12-31T16:50:49.594Z,200.26
2022-12-31T16:51:49.577Z,193.78
2022-12-31T16:52:49.727Z,197.31
2022-12-31T16:53:49.544Z,200.71
2022-12-31T16:54:49.560Z,199.11
2022-12-31T16:55:49.658Z,192.95
2022-12-31T16:56:49.651Z,191.89
2022-12-31T16:57:49.589Z,191.93
2022-12-31T16:58:49.548Z,202.26
2022-12-31T16:59:49.463Z,201.06
2022-12-31T17:00:49.495Z,202.27
2022-12-31T17:01:49.620Z,197.93
2022-12-31T17:02:49.621Z,201.06
2022-12-31T17:03:49.517Z,197.33
2022-12-31T17:04:55.355Z,195.78
2022-12-31T17:05:49.478Z,196.05
2022-12-31T17:06:49.411Z,198.53
2022-12-31T17:07:49.368Z,204.07
2022-12-31T17:08:49.390Z,212.71
2022-12-31T17:09:49.344Z,222.56
2022-12-31T17:10:49.404Z,221.98
2022-12-31T17:11:49.389Z,223.81
2022-12-31T17:13:49.430Z,231.14
2022-12-31T17:14:49.400Z,232.37
2022-12-31T17:15:49.372Z,235.06
2022-12-31T17:16:49.254Z,239.82
2022-12-31T17:17:49.219Z,248.48
2022-12-31T17:18:49.260Z,250.00
2022-12-31T17:19:49.203Z,249.27
2022-12-31T17:20:49.168Z,249.77
2022-12-31T17:21:49.195Z,250.00
2022-12-31T17:22:49.159Z,250.10
2022-12-31T17:23:49.082Z,251.15
2022-12-31T17:24:49.170Z,249.66
2022-12-31T17:25:49.133Z,248.97
2022-12-31T17:26:49.049Z,248.21
2022-12-31T17:27:49.011Z,244.15
2022-12-31T17:28:48.985Z,243.84
2022-12-31T17:29:49.022Z,218.07
2022-12-31T17:30:49.007Z,203.54
2022-12-31T17:31:48.962Z,201.57
2022-12-31T17:32:48.901Z,203.48
2022-12-31T17:33:49.030Z,202.98
2022-12-31T17:34:48.936Z,196.49
2022-12-31T17:35:48.915Z,185.85
2022-12-31T17:36:48.934Z,178.92
2022-12-31T17:37:48.936Z,178.78
2022-12-31T17:38:48.875Z,175.22
2022-12-31T17:39:48.859Z,178.80
2022-12-31T17:40:51.557Z,184.68
2022-12-31T17:41:48.860Z,184.97
2022-12-31T17:42:48.811Z,186.29
2022-12-31T17:43:48.794Z,188.94
2022-12-31T17:44:48.926Z,189.53
2022-12-31T17:45:48.810Z,192.30
2022-12-31T17:46:48.795Z,193.02
2022-12-31T17:47:48.731Z,194.76
2022-12-31T17:48:48.840Z,196.01
2022-12-31T17:49:48.704Z,193.51
2022-12-31T17:50:48.690Z,175.91
2022-12-31T17:51:48.733Z,161.11
2022-12-31T17:52:48.669Z,169.59
2022-12-31T17:53:48.698Z,164.50
2022-12-31T17:54:48.642Z,149.45
2022-12-31T17:55:48.653Z,147.28
2022-12-31T17:56:48.895Z,142.02
2022-12-31T17:57:48.591Z,136.69
2022-12-31T17:58:48.640Z,142.41
2022-12-31T17:59:48.618Z,144.14
2022-12-31T18:00:48.601Z,151.23
2022-12-31T18:01:48.739Z,157.76
2022-12-31T18:02:48.763Z,162.96
2022-12-31T18:03:48.601Z,160.41
2022-12-31T18:04:48.510Z,159.96
2022-12-31T18:05:48.520Z,159.13
2022-12-31T18:06:48.547Z,159.21
2022-12-31T18:07:48.478Z,159.17
2022-12-31T18:08:48.466Z,161.03
2022-12-31T18:09:48.573Z,164.07
2022-12-31T18:10:48.440Z,158.64
2022-12-31T18:11:48.435Z,144.72
2022-12-31T18:12:48.433Z,148.84
2022-12-31T18:13:48.481Z,144.30
2022-12-31T18:14:48.462Z,144.26
2022-12-31T18:15:48.514Z,152.85
2022-12-31T18:16:48.491Z,157.22
2022-12-31T18:17:48.396Z,160.83
2022-12-31T18:18:48.380Z,167.87
2022-12-31T18:20:04.784Z,175.76
2022-12-31T18:20:48.353Z,176.10
2022-12-31T18:21:48.350Z,178.88
2022-12-31T18:22:48.276Z,187.56
2022-12-31T18:23:48.305Z,199.24
2022-12-31T18:24:48.412Z,215.33
2022-12-31T18:25:48.320Z,219.32
2022-12-31T18:26:48.239Z,219.94
2022-12-31T18:27:48.270Z,219.14
2022-12-31T18:28:48.185Z,217.96
2022-12-31T18:29:48.150Z,217.31
2022-12-31T18:30:48.209Z,219.05
2022-12-31T18:31:48.190Z,220.31
2022-12-31T18:32:48.141Z,218.18
2022-12-31T18:33:48.170Z,215.35
2022-12-31T18:34:48.201Z,215.58
2022-12-31T18:36:08.112Z,215.71
2022-12-31T18:36:48.157Z,215.83
2022-12-31T18:37:48.076Z,216.28
2022-12-31T18:38:48.131Z,217.09
2022-12-31T18:39:48.119Z,218.25
2022-12-31T18:40:48.065Z,219.67
2022-12-31T18:41:47.990Z,209.78
2022-12-31T18:42:48.024Z,218.82
2022-12-31T18:43:47.949Z,223.68
2022-12-31T18:44:47.922Z,224.24
2022-12-31T18:45:48.016Z,217.06
2022-12-31T18:46:47.972Z,215.61
2022-12-31T18:47:47.944Z,225.51
2022-12-31T18:48:48.005Z,228.16
2022-12-31T18:49:48.887Z,228.49
2022-12-31T18:50:47.912Z,233.07
2022-12-31T18:51:47.966Z,241.40
2022-12-31T18:52:47.874Z,246.19
2022-12-31T18:53:47.896Z,247.25
2022-12-31T18:54:48.052Z,247.47
2022-12-31T18:55:47.921Z,249.48
2022-12-31T18:56:52.525Z,251.04
2022-12-31T18:57:47.855Z,251.35
2022-12-31T18:58:47.899Z,252.91
2022-12-31T18:59:47.829Z,254.99
2022-12-31T19:00:48.067Z,256.56
2022-12-31T19:01:47.971Z,261.80
2022-12-31T19:02:47.838Z,249.46
2022-12-31T19:03:47.874Z,248.10
2022-12-31T19:04:47.810Z,244.39
2022-12-31T19:05:47.784Z,241.21
2022-12-31T19:06:47.814Z,241.62
2022-12-31T19:07:47.792Z,239.24
2022-12-31T19:08:47.890Z,238.91
2022-12-31T19:09:50.205Z,235.77
2022-12-31T19:10:47.846Z,235.90
2022-12-31T19:11:47.822Z,235.97
2022-12-31T19:12:47.782Z,232.72
2022-12-31T19:13:47.859Z,225.91
2022-12-31T19:14:47.879Z,221.22
2022-12-31T19:15:47.781Z,212.13
2022-12-31T19:16:47.785Z,198.37
2022-12-31T19:17:47.775Z,194.22
2022-12-31T19:18:47.740Z,192.56
2022-12-31T19:19:47.706Z,195.55
2022-12-31T19:20:47.726Z,191.86
2022-12-31T19:21:47.845Z,191.40
2022-12-31T19:22:47.730Z,189.64
2022-12-31T19:23:47.741Z,189.73
2022-12-31T19:24:47.717Z,191.24
2022-12-31T19:25:47.764Z,192.05
2022-12-31T19:26:47.802Z,193.93
2022-12-31T19:27:47.711Z,196.30
2022-12-31T19:28:47.780Z,196.07
2022-12-31T19:29:47.694Z,186.81
2022-12-31T19:30:47.773Z,182.78
2022-12-31T19:31:47.863Z,185.44
2022-12-31T19:32:47.755Z,187.63
2022-12-31T19:33:47.836Z,188.38
2022-12-31T19:34:47.701Z,182.38
2022-12-31T19:35:47.679Z,184.15
2022-12-31T19:36:47.637Z,178.44
2022-12-31T19:37:47.656Z,163.30
2022-12-31T19:38:47.664Z,160.65
2022-12-31T19:39:47.652Z,152.23
2022-12-31T19:40:47.657Z,153.11
2022-12-31T19:41:52.907Z,138.58
2022-12-31T19:42:47.675Z,137.17
2022-12-31T19:43:47.648Z,125.34
2022-12-31T19:44:47.695Z,124.59
2022-12-31T19:45:47.648Z,120.35
2022-12-31T19:46:47.600Z,122.02
2022-12-31T19:47:47.660Z,125.21
2022-12-31T19:48:47.641Z,126.93
2022-12-31T19:49:47.637Z,129.15
2022-12-31T19:50:47.594Z,136.16
2022-12-31T19:51:47.744Z,138.85
2022-12-31T19:52:47.646Z,130.00
2022-12-31T19:53:47.654Z,131.10
2022-12-31T19:54:47.602Z,121.48
2022-12-31T19:55:47.534Z,116.56
2022-12-31T19:56:47.566Z,110.38
2022-12-31T19:57:47.613Z,107.36
2022-12-31T19:58:47.576Z,106.53
2022-12-31T19:59:47.545Z,105.45